createdAt,value
2019-03-19T00:00:24.110Z,983.15
2019-03-19T00:01:34.022Z,983.13
2019-03-19T00:02:43.940Z,983.1
2019-03-19T00:03:53.914Z,983.18
2019-03-19T00:05:03.833Z,983.08
2019-03-19T00:06:13.759Z,983.15
2019-03-19T00:07:23.681Z,983.13
2019-03-19T00:08:33.599Z,983.2
2019-03-19T00:09:43.521Z,983.18
2019-03-19T00:10:53.447Z,983.2
2019-03-19T00:12:03.418Z,983.22
2019-03-19T00:13:13.335Z,983.18
2019-03-19T00:14:23.264Z,983.13
2019-03-19T00:15:33.187Z,983.22
2019-03-19T00:16:43.111Z,983.24
2019-03-19T00:17:53.021Z,983.22
2019-03-19T00:19:02.955Z,983.34
2019-03-19T00:20:12.883Z,983.42
2019-03-19T00:21:22.849Z,983.54
2019-03-19T00:22:32.770Z,983.44
2019-03-19T00:23:42.686Z,983.41
2019-03-19T00:24:52.604Z,983.43
2019-03-19T00:26:02.538Z,983.51
2019-03-19T00:27:12.458Z,983.5
2019-03-19T00:28:22.368Z,983.48
2019-03-19T00:29:32.348Z,983.57
2019-03-19T00:30:42.275Z,983.52
2019-03-19T00:31:52.192Z,983.49
2019-03-19T00:33:02.112Z,983.52
2019-03-19T00:34:12.029Z,983.53
2019-03-19T00:35:22.063Z,983.47
2019-03-19T00:36:31.994Z,983.52
2019-03-19T00:37:41.917Z,983.44
2019-03-19T00:38:51.838Z,983.49
2019-03-19T00:40:01.766Z,983.35
2019-03-19T00:41:11.686Z,983.41
2019-03-19T00:42:21.639Z,983.41
2019-03-19T00:43:31.559Z,983.34
2019-03-19T00:44:41.478Z,983.32
2019-03-19T00:45:51.140Z,983.36
2019-03-19T00:47:01.152Z,983.3
2019-03-19T00:48:11.061Z,983.45
2019-03-19T00:49:20.982Z,983.48
2019-03-19T00:50:30.897Z,983.5
2019-03-19T00:51:40.832Z,983.56
2019-03-19T00:52:50.772Z,983.59
2019-03-19T00:54:00.688Z,983.6
2019-03-19T00:55:10.354Z,983.64
2019-03-19T00:56:20.274Z,983.7
2019-03-19T00:57:30.186Z,983.72
2019-03-19T00:58:40.100Z,983.73
2019-03-19T00:59:50.009Z,983.75
2019-03-19T01:00:59.927Z,983.77
2019-03-19T01:02:09.845Z,983.74
2019-03-19T01:03:19.776Z,983.76
2019-03-19T01:04:29.748Z,983.81
2019-03-19T01:05:39.687Z,983.82
2019-03-19T01:06:49.604Z,983.78
2019-03-19T01:07:59.265Z,983.74
2019-03-19T01:09:09.196Z,983.85
2019-03-19T01:10:19.115Z,983.74
2019-03-19T01:11:29.032Z,983.74
2019-03-19T01:12:38.966Z,983.72
2019-03-19T01:13:48.888Z,983.78
2019-03-19T01:14:58.810Z,983.81
2019-03-19T01:16:08.823Z,983.85
2019-03-19T01:17:18.737Z,983.9
2019-03-19T01:18:28.666Z,983.89
2019-03-19T01:19:38.580Z,983.94
2019-03-19T01:20:48.494Z,984.02
2019-03-19T01:21:58.480Z,984.01
2019-03-19T01:23:08.393Z,984.04
2019-03-19T01:24:18.473Z,984.09
2019-03-19T01:25:28.392Z,984.1
2019-03-19T01:26:38.314Z,984.14
2019-03-19T01:27:48.232Z,984.16
2019-03-19T01:28:58.149Z,984.2
2019-03-19T01:30:08.081Z,984.24
2019-03-19T01:31:18.001Z,984.23
2019-03-19T01:32:27.942Z,984.28
2019-03-19T01:33:37.953Z,984.31
2019-03-19T01:34:47.891Z,984.39
2019-03-19T01:35:57.814Z,984.4
2019-03-19T01:37:07.728Z,984.41
2019-03-19T01:38:17.396Z,984.38
2019-03-19T01:39:27.363Z,984.42
2019-03-19T01:40:37.284Z,984.4
2019-03-19T01:41:47.196Z,984.44
2019-03-19T01:42:57.137Z,984.43
2019-03-19T01:44:07.102Z,984.46
2019-03-19T01:45:17.222Z,984.44
2019-03-19T01:46:27.132Z,984.46
2019-03-19T01:47:37.047Z,984.46
2019-03-19T01:48:46.976Z,984.53
2019-03-19T01:49:56.900Z,984.5
2019-03-19T01:51:06.818Z,984.49
2019-03-19T01:52:16.764Z,984.49
2019-03-19T01:53:26.693Z,984.48
2019-03-19T01:54:36.609Z,984.55
2019-03-19T01:55:46.532Z,984.57
2019-03-19T01:57:07.552Z,984.63
2019-03-19T01:58:17.465Z,984.7
2019-03-19T01:59:27.394Z,984.71
2019-03-19T02:00:37.371Z,984.67
2019-03-19T02:01:47.304Z,984.69
2019-03-19T02:02:57.319Z,984.74
2019-03-19T02:04:07.242Z,984.73
2019-03-19T02:05:17.164Z,984.69
2019-03-19T02:06:27.076Z,984.69
2019-03-19T02:07:36.985Z,984.68
2019-03-19T02:08:46.908Z,984.62
2019-03-19T02:09:56.825Z,984.61
2019-03-19T02:11:06.743Z,984.59
2019-03-19T02:12:16.660Z,984.59
2019-03-19T02:13:26.585Z,984.57
2019-03-19T02:14:36.550Z,984.57
2019-03-19T02:15:46.470Z,984.58
2019-03-19T02:16:56.384Z,984.61
2019-03-19T02:18:06.301Z,984.65
2019-03-19T02:19:16.231Z,984.65
2019-03-19T02:20:26.252Z,984.6
2019-03-19T02:21:36.172Z,984.54
2019-03-19T02:22:46.094Z,984.6
2019-03-19T02:23:56.034Z,984.72
2019-03-19T02:25:05.961Z,984.55
2019-03-19T02:26:17.019Z,984.56
2019-03-19T02:27:27.059Z,984.58
2019-03-19T02:28:36.992Z,984.61
2019-03-19T02:29:46.911Z,984.61
2019-03-19T02:30:56.839Z,984.67
2019-03-19T02:32:06.900Z,984.65
2019-03-19T02:33:16.846Z,984.7
2019-03-19T02:34:26.780Z,984.69
2019-03-19T02:35:36.759Z,984.78
2019-03-19T02:36:46.701Z,984.79
2019-03-19T02:37:56.788Z,984.81
2019-03-19T02:39:06.747Z,984.82
2019-03-19T02:40:16.704Z,984.82
2019-03-19T02:41:26.663Z,984.87
2019-03-19T02:42:36.622Z,984.82
2019-03-19T02:43:46.587Z,984.84
2019-03-19T02:44:56.540Z,984.9
2019-03-19T02:46:06.492Z,984.89
2019-03-19T02:47:16.429Z,984.88
2019-03-19T02:48:26.386Z,984.9
2019-03-19T02:49:36.424Z,984.92
2019-03-19T02:50:46.359Z,984.92
2019-03-19T02:51:56.286Z,984.87
2019-03-19T02:53:06.217Z,984.9
2019-03-19T02:54:16.154Z,984.92
2019-03-19T02:55:26.091Z,984.95
2019-03-19T02:56:36.074Z,984.95
2019-03-19T02:57:46.013Z,984.96
2019-03-19T02:58:55.947Z,984.96
2019-03-19T03:00:05.891Z,985.02
2019-03-19T03:01:15.866Z,984.98
2019-03-19T03:02:25.793Z,984.96
2019-03-19T03:03:35.718Z,984.95
2019-03-19T03:04:45.668Z,985.04
2019-03-19T03:05:55.590Z,985.03
2019-03-19T03:07:05.614Z,985.03
2019-03-19T03:08:15.621Z,985.07
2019-03-19T03:09:25.614Z,984.98
2019-03-19T03:10:35.570Z,985.07
2019-03-19T03:11:45.521Z,985.02
2019-03-19T03:12:55.445Z,985.04
2019-03-19T03:14:05.384Z,985.01
2019-03-19T03:15:15.331Z,984.98
2019-03-19T03:16:25.278Z,984.94
2019-03-19T03:17:35.214Z,985
2019-03-19T03:18:45.271Z,985.01
2019-03-19T03:19:55.205Z,985.1
2019-03-19T03:21:04.891Z,985.1
2019-03-19T03:22:14.841Z,985.02
2019-03-19T03:23:24.540Z,985.11
2019-03-19T03:24:34.554Z,985.14
2019-03-19T03:25:44.478Z,985.14
2019-03-19T03:26:54.411Z,985.12
2019-03-19T03:28:07.349Z,985.14
2019-03-19T03:29:17.285Z,985.23
2019-03-19T03:30:27.336Z,985.21
2019-03-19T03:31:37.081Z,985.21
2019-03-19T03:32:46.849Z,985.21
2019-03-19T03:33:56.838Z,985.18
2019-03-19T03:35:06.811Z,985.22
2019-03-19T03:36:16.902Z,985.2
2019-03-19T03:37:26.851Z,985.31
2019-03-19T03:38:36.890Z,985.3
2019-03-19T03:39:46.825Z,985.3
2019-03-19T03:40:56.757Z,985.32
2019-03-19T03:42:06.741Z,985.28
2019-03-19T03:43:16.680Z,985.3
2019-03-19T03:44:26.610Z,985.26
2019-03-19T03:45:36.546Z,985.33
2019-03-19T03:46:46.475Z,985.36
2019-03-19T03:47:56.402Z,985.41
2019-03-19T03:49:06.110Z,985.41
2019-03-19T03:50:15.785Z,985.5
2019-03-19T03:51:25.717Z,985.5
2019-03-19T03:52:35.649Z,985.52
2019-03-19T03:53:45.678Z,985.44
2019-03-19T03:54:55.604Z,985.5
2019-03-19T03:56:05.655Z,985.53
2019-03-19T03:57:15.602Z,985.61
2019-03-19T03:58:25.540Z,985.6
2019-03-19T03:59:35.514Z,985.63
2019-03-19T04:00:45.441Z,985.64
2019-03-19T04:01:55.457Z,985.66
2019-03-19T04:03:05.130Z,985.67
2019-03-19T04:04:15.066Z,985.72
2019-03-19T04:05:25.008Z,985.72
2019-03-19T04:06:34.933Z,985.78
2019-03-19T04:07:44.869Z,985.83
2019-03-19T04:08:54.784Z,985.74
2019-03-19T04:10:04.759Z,985.75
2019-03-19T04:11:14.798Z,985.74
2019-03-19T04:12:24.732Z,985.79
2019-03-19T04:13:34.664Z,985.8
2019-03-19T04:14:46.559Z,985.86
2019-03-19T04:15:56.798Z,985.85
2019-03-19T04:17:06.788Z,985.88
2019-03-19T04:18:16.715Z,985.97
2019-03-19T04:19:26.690Z,985.99
2019-03-19T04:20:36.611Z,986.01
2019-03-19T04:21:46.623Z,985.95
2019-03-19T04:22:56.568Z,985.97
2019-03-19T04:24:06.545Z,985.97
2019-03-19T04:25:16.492Z,986.01
2019-03-19T04:26:26.168Z,985.97
2019-03-19T04:27:35.612Z,986
2019-03-19T04:28:48.294Z,986.02
2019-03-19T04:29:57.983Z,986.04
2019-03-19T04:31:08.077Z,986.05
2019-03-19T04:32:18.001Z,986.12
2019-03-19T04:33:27.930Z,986.05
2019-03-19T04:34:37.913Z,986.03
2019-03-19T04:35:47.843Z,986.1
2019-03-19T04:36:57.771Z,986.04
2019-03-19T04:38:07.692Z,986.04
2019-03-19T04:39:17.615Z,986.04
2019-03-19T04:40:27.718Z,986.06
2019-03-19T04:41:37.671Z,986.08
2019-03-19T04:42:47.603Z,986.04
2019-03-19T04:43:57.525Z,986.07
2019-03-19T04:45:07.445Z,986.13
2019-03-19T04:46:17.118Z,986.14
2019-03-19T04:47:27.034Z,986.16
2019-03-19T04:48:36.953Z,986.19
2019-03-19T04:49:46.926Z,986.25
2019-03-19T04:50:56.858Z,986.25
2019-03-19T04:52:06.844Z,986.27
2019-03-19T04:53:16.758Z,986.32
2019-03-19T04:54:29.389Z,986.36
2019-03-19T04:55:39.311Z,986.38
2019-03-19T04:56:49.225Z,986.38
2019-03-19T04:57:59.243Z,986.47
2019-03-19T04:59:09.158Z,986.47
2019-03-19T05:00:19.087Z,986.51
2019-03-19T05:01:29.014Z,986.51
2019-03-19T05:02:39.018Z,986.52
2019-03-19T05:03:48.698Z,986.62
2019-03-19T05:04:58.616Z,986.6
2019-03-19T05:06:08.548Z,986.64
2019-03-19T05:07:18.481Z,986.59
2019-03-19T05:08:28.401Z,986.6
2019-03-19T05:09:38.428Z,986.56
2019-03-19T05:10:48.342Z,986.59
2019-03-19T05:11:58.279Z,986.59
2019-03-19T05:13:08.205Z,986.63
2019-03-19T05:14:18.130Z,986.66
2019-03-19T05:15:28.053Z,986.67
2019-03-19T05:16:37.974Z,986.74
2019-03-19T05:17:47.897Z,986.76
2019-03-19T05:18:57.808Z,986.74
2019-03-19T05:20:07.748Z,986.78
2019-03-19T05:21:17.677Z,986.75
2019-03-19T05:22:27.623Z,986.79
2019-03-19T05:23:37.285Z,986.77
2019-03-19T05:24:47.195Z,986.8
2019-03-19T05:25:57.109Z,986.82
2019-03-19T05:27:07.150Z,986.83
2019-03-19T05:28:19.228Z,986.9
2019-03-19T05:29:29.149Z,986.9
2019-03-19T05:30:38.825Z,986.88
2019-03-19T05:31:48.751Z,986.91
2019-03-19T05:32:58.775Z,986.88
2019-03-19T05:34:08.705Z,986.94
2019-03-19T05:35:18.640Z,986.92
2019-03-19T05:36:28.557Z,986.98
2019-03-19T05:37:38.478Z,986.95
2019-03-19T05:38:48.408Z,986.98
2019-03-19T05:39:58.324Z,987.04
2019-03-19T05:41:08.283Z,987.07
2019-03-19T05:42:19.595Z,987.1
2019-03-19T05:43:29.552Z,987.14
2019-03-19T05:44:39.580Z,987.2
2019-03-19T05:45:49.489Z,987.21
2019-03-19T05:46:59.148Z,987.25
2019-03-19T05:48:09.067Z,987.29
2019-03-19T05:49:18.976Z,987.2
2019-03-19T05:50:28.647Z,987.23
2019-03-19T05:51:38.560Z,987.25
2019-03-19T05:52:48.731Z,987.26
2019-03-19T05:53:58.515Z,987.33
2019-03-19T05:55:08.434Z,987.32
2019-03-19T05:56:18.380Z,987.35
2019-03-19T05:57:28.301Z,987.36
2019-03-19T05:58:49.218Z,987.36
2019-03-19T05:59:59.134Z,987.35
2019-03-19T06:01:09.083Z,987.36
2019-03-19T06:02:19.504Z,987.37
2019-03-19T06:03:29.423Z,987.38
2019-03-19T06:04:39.349Z,987.45
2019-03-19T06:05:49.260Z,987.42
2019-03-19T06:06:58.933Z,987.32
2019-03-19T06:08:08.954Z,987.4
2019-03-19T06:09:18.865Z,987.4
2019-03-19T06:10:28.785Z,987.4
2019-03-19T06:11:38.774Z,987.39
2019-03-19T06:12:48.695Z,987.36
2019-03-19T06:13:58.726Z,987.39
2019-03-19T06:15:08.649Z,987.41
2019-03-19T06:16:18.582Z,987.41
2019-03-19T06:17:28.498Z,987.39
2019-03-19T06:18:38.418Z,987.41
2019-03-19T06:19:48.409Z,987.46
2019-03-19T06:20:58.428Z,987.41
2019-03-19T06:22:08.364Z,987.46
2019-03-19T06:23:18.283Z,987.48
2019-03-19T06:24:28.196Z,987.62
2019-03-19T06:25:38.214Z,987.55
2019-03-19T06:26:48.151Z,987.57
2019-03-19T06:28:00.534Z,987.63
2019-03-19T06:29:10.807Z,987.6
2019-03-19T06:30:20.729Z,987.56
2019-03-19T06:31:30.745Z,987.54
2019-03-19T06:32:40.664Z,987.56
2019-03-19T06:33:50.579Z,987.55
2019-03-19T06:35:00.497Z,987.48
2019-03-19T06:36:10.420Z,987.57
2019-03-19T06:37:20.435Z,987.55
2019-03-19T06:38:30.356Z,987.57
2019-03-19T06:39:40.270Z,987.52
2019-03-19T06:40:51.308Z,987.57
2019-03-19T06:42:01.281Z,987.63
2019-03-19T06:43:11.297Z,987.54
2019-03-19T06:44:21.207Z,987.52
2019-03-19T06:45:31.131Z,987.54
2019-03-19T06:46:41.041Z,987.56
2019-03-19T06:47:50.959Z,987.58
2019-03-19T06:49:00.876Z,987.54
2019-03-19T06:50:10.792Z,987.55
2019-03-19T06:51:20.747Z,987.59
2019-03-19T06:52:30.691Z,987.55
2019-03-19T06:53:40.613Z,987.56
2019-03-19T06:54:50.608Z,987.59
2019-03-19T06:56:00.532Z,987.61
2019-03-19T06:57:10.444Z,987.66
2019-03-19T06:58:20.366Z,987.69
2019-03-19T06:59:30.282Z,987.67
2019-03-19T07:00:40.204Z,987.67
2019-03-19T07:01:50.124Z,987.7
2019-03-19T07:03:00.045Z,987.62
2019-03-19T07:04:09.963Z,987.64
2019-03-19T07:05:19.891Z,987.6
2019-03-19T07:06:29.815Z,987.63
2019-03-19T07:07:39.730Z,987.61
2019-03-19T07:08:49.643Z,987.61
2019-03-19T07:09:59.561Z,987.62
2019-03-19T07:11:09.494Z,987.62
2019-03-19T07:12:19.507Z,987.6
2019-03-19T07:13:29.426Z,987.6
2019-03-19T07:14:38.894Z,987.56
2019-03-19T07:15:48.822Z,987.6
2019-03-19T07:16:58.511Z,987.55
2019-03-19T07:18:08.550Z,987.56
2019-03-19T07:19:18.465Z,987.58
2019-03-19T07:20:28.193Z,987.56
2019-03-19T07:21:38.118Z,987.52
2019-03-19T07:22:48.034Z,987.51
2019-03-19T07:23:57.962Z,987.52
2019-03-19T07:25:07.899Z,987.52
2019-03-19T07:26:17.831Z,987.51
2019-03-19T07:27:27.748Z,987.51
2019-03-19T07:28:37.677Z,987.53
2019-03-19T07:29:47.699Z,987.56
2019-03-19T07:30:57.627Z,987.57
2019-03-19T07:32:07.549Z,987.57
2019-03-19T07:33:17.462Z,987.66
2019-03-19T07:34:27.395Z,987.65
2019-03-19T07:35:37.314Z,987.66
2019-03-19T07:36:47.254Z,987.67
2019-03-19T07:37:57.174Z,987.71
2019-03-19T07:39:07.101Z,987.71
2019-03-19T07:40:17.024Z,987.72
2019-03-19T07:41:27.147Z,987.74
2019-03-19T07:42:37.064Z,987.77
2019-03-19T07:43:46.984Z,987.77
2019-03-19T07:44:56.651Z,987.79
2019-03-19T07:46:06.602Z,987.77
2019-03-19T07:47:16.575Z,987.8
2019-03-19T07:48:26.509Z,987.79
2019-03-19T07:49:36.431Z,987.83
2019-03-19T07:50:46.358Z,987.84
2019-03-19T07:51:56.284Z,987.83
2019-03-19T07:53:05.995Z,987.86
2019-03-19T07:54:15.921Z,987.86
2019-03-19T07:55:25.836Z,987.86
2019-03-19T07:56:35.750Z,987.89
2019-03-19T07:57:45.698Z,987.94
2019-03-19T07:58:55.621Z,987.94
2019-03-19T08:00:05.544Z,987.89
2019-03-19T08:01:15.459Z,987.88
2019-03-19T08:02:27.532Z,987.9
2019-03-19T08:03:37.450Z,987.93
2019-03-19T08:04:47.417Z,987.95
2019-03-19T08:05:57.339Z,987.91
2019-03-19T08:07:07.263Z,987.94
2019-03-19T08:08:17.178Z,987.93
2019-03-19T08:09:27.192Z,987.96
2019-03-19T08:10:37.155Z,987.96
2019-03-19T08:11:47.068Z,987.99
2019-03-19T08:12:56.999Z,988.02
2019-03-19T08:14:06.917Z,988.01
2019-03-19T08:15:16.839Z,988
2019-03-19T08:16:27.490Z,987.98
2019-03-19T08:17:37.450Z,987.98
2019-03-19T08:18:48.351Z,987.98
2019-03-19T08:19:58.271Z,987.96
2019-03-19T08:21:08.204Z,988
2019-03-19T08:22:18.172Z,988.07
2019-03-19T08:23:28.163Z,988.08
2019-03-19T08:24:38.086Z,988.1
2019-03-19T08:25:48.002Z,988.11
2019-03-19T08:26:57.922Z,988.12
2019-03-19T08:28:07.839Z,988.17
2019-03-19T08:29:17.533Z,988.17
2019-03-19T08:30:27.458Z,988.15
2019-03-19T08:31:37.380Z,988.2
2019-03-19T08:32:47.299Z,988.13
2019-03-19T08:33:57.236Z,988.17
2019-03-19T08:35:07.157Z,988.17
2019-03-19T08:36:17.074Z,988.19
2019-03-19T08:37:26.744Z,988.24
2019-03-19T08:38:36.671Z,988.27
2019-03-19T08:39:46.640Z,988.25
2019-03-19T08:40:57.293Z,988.29
2019-03-19T08:42:07.221Z,988.28
2019-03-19T08:43:17.141Z,988.34
2019-03-19T08:44:28.202Z,988.25
2019-03-19T08:45:38.159Z,988.3
2019-03-19T08:46:48.097Z,988.3
2019-03-19T08:47:58.013Z,988.27
2019-03-19T08:49:07.967Z,988.25
2019-03-19T08:50:17.630Z,988.26
2019-03-19T08:51:27.574Z,988.3
2019-03-19T08:52:37.490Z,988.33
2019-03-19T08:53:47.158Z,988.36
2019-03-19T08:54:57.073Z,988.4
2019-03-19T08:56:06.993Z,988.44
2019-03-19T08:57:16.957Z,988.45
2019-03-19T08:58:26.877Z,988.47
2019-03-19T08:59:36.805Z,988.52
2019-03-19T09:00:46.741Z,988.54
2019-03-19T09:01:56.657Z,988.57
2019-03-19T09:03:06.577Z,988.58
2019-03-19T09:04:16.500Z,988.57
2019-03-19T09:05:26.419Z,988.55
2019-03-19T09:06:36.348Z,988.57
2019-03-19T09:07:46.381Z,988.52
2019-03-19T09:08:56.319Z,988.53
2019-03-19T09:10:06.241Z,988.59
2019-03-19T09:11:16.157Z,988.63
2019-03-19T09:12:26.077Z,988.63
2019-03-19T09:13:36.001Z,988.63
2019-03-19T09:14:45.986Z,988.65
2019-03-19T09:15:55.904Z,988.64
2019-03-19T09:17:05.853Z,988.67
2019-03-19T09:18:16.162Z,988.66
2019-03-19T09:19:26.170Z,988.65
2019-03-19T09:20:36.087Z,988.62
2019-03-19T09:21:46.011Z,988.63
2019-03-19T09:22:55.939Z,988.62
2019-03-19T09:24:05.863Z,988.63
2019-03-19T09:25:15.544Z,988.68
2019-03-19T09:26:25.474Z,988.66
2019-03-19T09:27:35.396Z,988.68
2019-03-19T09:28:45.330Z,988.67
2019-03-19T09:29:55.260Z,988.64
2019-03-19T09:31:05.185Z,988.65
2019-03-19T09:32:15.170Z,988.73
2019-03-19T09:33:25.093Z,988.69
2019-03-19T09:34:35.014Z,988.72
2019-03-19T09:35:44.935Z,988.7
2019-03-19T09:36:57.475Z,988.7
2019-03-19T09:38:07.688Z,988.68
2019-03-19T09:39:17.604Z,988.64
2019-03-19T09:40:27.530Z,988.65
2019-03-19T09:41:37.453Z,988.68
2019-03-19T09:42:47.370Z,988.69
2019-03-19T09:43:57.292Z,988.65
2019-03-19T09:45:07.227Z,988.68
2019-03-19T09:46:18.566Z,988.69
2019-03-19T09:47:28.590Z,988.66
2019-03-19T09:48:39.069Z,988.66
2019-03-19T09:49:50.723Z,988.62
2019-03-19T09:51:00.757Z,988.64
2019-03-19T09:52:10.484Z,988.63
2019-03-19T09:53:20.401Z,988.62
2019-03-19T09:54:32.182Z,988.6
2019-03-19T09:55:42.282Z,988.57
2019-03-19T09:56:51.956Z,988.58
2019-03-19T09:58:01.883Z,988.53
2019-03-19T09:59:11.812Z,988.48
2019-03-19T10:00:31.939Z,988.44
2019-03-19T10:01:41.867Z,988.41
2019-03-19T10:02:51.793Z,988.44
2019-03-19T10:04:01.721Z,988.46
2019-03-19T10:05:11.643Z,988.45
2019-03-19T10:06:21.567Z,988.46
2019-03-19T10:07:31.534Z,988.49
2019-03-19T10:08:41.465Z,988.46
2019-03-19T10:09:51.394Z,988.46
2019-03-19T10:11:01.345Z,988.46
2019-03-19T10:12:11.274Z,988.51
2019-03-19T10:13:21.270Z,988.49
2019-03-19T10:14:31.252Z,988.45
2019-03-19T10:15:41.177Z,988.52
2019-03-19T10:16:51.118Z,988.49
2019-03-19T10:18:01.067Z,988.51
2019-03-19T10:19:11.096Z,988.51
2019-03-19T10:20:21.044Z,988.52
2019-03-19T10:21:30.980Z,988.54
2019-03-19T10:22:40.902Z,988.58
2019-03-19T10:23:50.839Z,988.62
2019-03-19T10:25:00.811Z,988.6
2019-03-19T10:26:10.737Z,988.63
2019-03-19T10:27:20.661Z,988.6
2019-03-19T10:28:30.333Z,988.61
2019-03-19T10:29:40.257Z,988.57
2019-03-19T10:30:50.193Z,988.64
2019-03-19T10:32:00.123Z,988.63
2019-03-19T10:33:10.091Z,988.61
2019-03-19T10:34:21.346Z,988.66
2019-03-19T10:35:31.271Z,988.66
2019-03-19T10:36:41.204Z,988.67
2019-03-19T10:37:51.133Z,988.67
2019-03-19T10:39:01.064Z,988.71
2019-03-19T10:40:11.800Z,988.73
2019-03-19T10:41:21.740Z,988.75
2019-03-19T10:42:31.718Z,988.73
2019-03-19T10:43:41.391Z,988.77
2019-03-19T10:44:51.329Z,988.79
2019-03-19T10:46:01.252Z,988.82
2019-03-19T10:47:11.173Z,988.8
2019-03-19T10:48:21.096Z,988.86
2019-03-19T10:49:31.032Z,988.84
2019-03-19T10:50:40.976Z,988.84
2019-03-19T10:51:50.923Z,988.85
2019-03-19T10:53:00.846Z,988.8
2019-03-19T10:54:10.772Z,988.83
2019-03-19T10:55:20.693Z,988.87
2019-03-19T10:56:30.381Z,988.88
2019-03-19T10:57:41.757Z,988.88
2019-03-19T10:58:51.694Z,988.89
2019-03-19T11:00:01.669Z,988.87
2019-03-19T11:01:11.592Z,988.89
2019-03-19T11:02:21.516Z,988.85
2019-03-19T11:03:31.452Z,988.83
2019-03-19T11:04:41.372Z,988.85
2019-03-19T11:05:51.306Z,988.83
2019-03-19T11:07:01.230Z,988.87
2019-03-19T11:08:11.158Z,988.86
2019-03-19T11:09:21.101Z,988.85
2019-03-19T11:10:31.026Z,988.93
2019-03-19T11:11:40.971Z,988.87
2019-03-19T11:12:50.703Z,988.94
2019-03-19T11:14:00.659Z,988.98
2019-03-19T11:15:10.606Z,989.03
2019-03-19T11:16:20.540Z,989.07
2019-03-19T11:17:30.532Z,989.04
2019-03-19T11:18:40.466Z,989
2019-03-19T11:19:50.400Z,989.05
2019-03-19T11:21:00.336Z,989.03
2019-03-19T11:22:10.082Z,988.99
2019-03-19T11:23:20.026Z,988.97
2019-03-19T11:24:29.697Z,989
2019-03-19T11:25:39.629Z,988.97
2019-03-19T11:26:59.675Z,988.93
2019-03-19T11:28:09.607Z,988.96
2019-03-19T11:29:21.468Z,988.95
2019-03-19T11:30:31.426Z,989
2019-03-19T11:31:41.444Z,989.03
2019-03-19T11:32:51.383Z,989.07
2019-03-19T11:34:01.385Z,989.03
2019-03-19T11:35:11.325Z,988.98
2019-03-19T11:36:21.264Z,989.02
2019-03-19T11:37:31.198Z,988.96
2019-03-19T11:38:41.194Z,988.93
2019-03-19T11:39:51.132Z,988.86
2019-03-19T11:41:01.109Z,988.81
2019-03-19T11:42:12.531Z,988.82
2019-03-19T11:43:22.207Z,988.76
2019-03-19T11:44:32.148Z,988.78
2019-03-19T11:45:43.418Z,988.73
2019-03-19T11:46:53.616Z,988.82
2019-03-19T11:48:03.659Z,988.82
2019-03-19T11:49:13.604Z,988.8
2019-03-19T11:50:23.662Z,988.82
2019-03-19T11:51:36.197Z,988.81
2019-03-19T11:52:46.137Z,988.79
2019-03-19T11:53:56.083Z,988.82
2019-03-19T11:55:06.033Z,988.73
2019-03-19T11:56:15.977Z,988.7
2019-03-19T11:57:25.914Z,988.75
2019-03-19T11:58:35.856Z,988.81
2019-03-19T11:59:45.797Z,988.79
2019-03-19T12:00:55.739Z,988.85
2019-03-19T12:02:05.706Z,988.84
2019-03-19T12:03:26.366Z,988.83
2019-03-19T12:04:36.316Z,988.72
2019-03-19T12:05:46.260Z,988.67
2019-03-19T12:06:56.207Z,988.75
2019-03-19T12:08:06.156Z,988.67
2019-03-19T12:09:16.147Z,988.64
2019-03-19T12:10:26.088Z,988.69
2019-03-19T12:11:36.032Z,988.64
2019-03-19T12:12:45.971Z,988.7
2019-03-19T12:13:55.916Z,988.63
2019-03-19T12:15:05.869Z,988.61
2019-03-19T12:16:15.809Z,988.62
2019-03-19T12:17:25.773Z,988.58
2019-03-19T12:18:35.715Z,988.55
2019-03-19T12:19:45.654Z,988.54
2019-03-19T12:20:55.597Z,988.51
2019-03-19T12:22:05.547Z,988.55
2019-03-19T12:23:15.483Z,988.56
2019-03-19T12:24:25.506Z,988.49
2019-03-19T12:25:37.932Z,988.55
2019-03-19T12:26:47.938Z,988.55
2019-03-19T12:27:57.874Z,988.5
2019-03-19T12:29:07.812Z,988.48
2019-03-19T12:30:21.944Z,988.41
2019-03-19T12:31:34.080Z,988.49
2019-03-19T12:32:43.772Z,988.51
2019-03-19T12:33:53.715Z,988.49
2019-03-19T12:35:03.651Z,988.48
2019-03-19T12:36:13.602Z,988.59
2019-03-19T12:37:23.549Z,988.58
2019-03-19T12:38:33.487Z,988.58
2019-03-19T12:39:43.423Z,988.57
2019-03-19T12:40:53.356Z,988.63
2019-03-19T12:42:03.299Z,988.6
2019-03-19T12:43:12.989Z,988.61
2019-03-19T12:44:22.981Z,988.69
2019-03-19T12:45:32.932Z,988.68
2019-03-19T12:46:42.880Z,988.63
2019-03-19T12:47:52.568Z,988.57
2019-03-19T12:49:02.510Z,988.53
2019-03-19T12:50:12.557Z,988.55
2019-03-19T12:51:22.503Z,988.49
2019-03-19T12:52:32.440Z,988.51
2019-03-19T12:53:42.377Z,988.5
2019-03-19T12:54:52.306Z,988.51
2019-03-19T12:56:02.242Z,988.49
2019-03-19T12:57:12.180Z,988.56
2019-03-19T12:58:22.116Z,988.59
2019-03-19T12:59:32.055Z,988.64
2019-03-19T13:00:43.188Z,988.7
2019-03-19T13:01:53.207Z,988.81
2019-03-19T13:03:03.311Z,988.67
2019-03-19T13:04:13.259Z,988.66
2019-03-19T13:05:23.200Z,988.72
2019-03-19T13:06:33.137Z,988.68
2019-03-19T13:07:42.823Z,988.64
2019-03-19T13:08:52.759Z,988.64
2019-03-19T13:10:02.692Z,988.62
2019-03-19T13:11:12.437Z,988.65
2019-03-19T13:12:22.369Z,988.65
2019-03-19T13:13:32.304Z,988.62
2019-03-19T13:14:43.842Z,988.52
2019-03-19T13:15:53.780Z,988.59
2019-03-19T13:17:03.729Z,988.62
2019-03-19T13:18:13.676Z,988.48
2019-03-19T13:19:23.664Z,988.49
2019-03-19T13:20:33.594Z,988.43
2019-03-19T13:21:43.527Z,988.4
2019-03-19T13:22:53.461Z,988.41
2019-03-19T13:24:03.402Z,988.55
2019-03-19T13:25:13.336Z,988.47
2019-03-19T13:26:23.267Z,988.33
2019-03-19T13:27:33.200Z,988.38
2019-03-19T13:28:44.110Z,988.38
2019-03-19T13:29:54.054Z,988.34
2019-03-19T13:31:04.002Z,988.24
2019-03-19T13:32:13.932Z,988.25
2019-03-19T13:33:23.872Z,988.4
2019-03-19T13:34:33.803Z,988.44
2019-03-19T13:35:43.730Z,988.32
2019-03-19T13:36:53.723Z,988.37
2019-03-19T13:38:06.149Z,988.3
2019-03-19T13:39:17.720Z,988.31
2019-03-19T13:40:27.658Z,988.35
2019-03-19T13:41:37.594Z,988.34
2019-03-19T13:42:47.594Z,988.4
2019-03-19T13:43:57.275Z,988.46
2019-03-19T13:45:07.213Z,988.39
2019-03-19T13:46:17.140Z,988.32
2019-03-19T13:47:27.073Z,988.3
2019-03-19T13:48:37.156Z,988.35
2019-03-19T13:49:47.095Z,988.36
2019-03-19T13:50:57.029Z,988.37
2019-03-19T13:52:06.954Z,988.4
2019-03-19T13:53:16.878Z,988.41
2019-03-19T13:54:26.848Z,988.32
2019-03-19T13:55:36.790Z,988.37
2019-03-19T13:56:46.713Z,988.31
2019-03-19T13:57:56.648Z,988.38
2019-03-19T13:59:06.582Z,988.43
2019-03-19T14:00:16.594Z,988.37
2019-03-19T14:01:26.558Z,988.4
2019-03-19T14:02:36.504Z,988.48
2019-03-19T14:03:46.443Z,988.43
2019-03-19T14:04:56.372Z,988.29
2019-03-19T14:06:06.310Z,988.29
2019-03-19T14:07:16.254Z,988.31
2019-03-19T14:08:26.185Z,988.36
2019-03-19T14:09:36.113Z,988.38
2019-03-19T14:10:46.037Z,988.37
2019-03-19T14:11:57.244Z,988.35
2019-03-19T14:13:07.179Z,988.58
2019-03-19T14:14:17.105Z,988.5
2019-03-19T14:15:27.029Z,988.45
2019-03-19T14:16:36.972Z,988.47
2019-03-19T14:17:47.207Z,988.47
2019-03-19T14:18:57.142Z,988.47
2019-03-19T14:20:07.074Z,988.41
2019-03-19T14:21:17.082Z,988.46
2019-03-19T14:22:27.026Z,988.44
2019-03-19T14:23:37.105Z,988.39
2019-03-19T14:24:47.038Z,988.42
2019-03-19T14:25:56.965Z,988.6
2019-03-19T14:27:06.892Z,988.55
2019-03-19T14:28:16.817Z,988.52
2019-03-19T14:29:27.451Z,988.53
2019-03-19T14:30:37.376Z,988.56
2019-03-19T14:31:47.319Z,988.63
2019-03-19T14:32:57.249Z,988.51
2019-03-19T14:34:07.190Z,988.4
2019-03-19T14:35:17.164Z,988.38
2019-03-19T14:36:37.672Z,988.5
2019-03-19T14:37:47.627Z,988.54